sensor_id;sensor_type;location;lat;lon;timestamp;temperature;humidity
33837;DHT22;20140;49.356;8.812;2022-07-23T00:01:28;21.20;99.90
33837;DHT22;20140;49.356;8.812;2022-07-23T00:03:54;21.30;99.90
33837;DHT22;20140;49.356;8.812;2022-07-23T00:06:20;21.30;99.90
33837;DHT22;20140;49.356;8.812;2022-07-23T00:08:45;21.20;99.90
33837;DHT22;20140;49.356;8.812;2022-07-23T00:11:11;21.20;99.90
33837;DHT22;20140;49.356;8.812;2022-07-23T00:13:36;21.20;99.90
33837;DHT22;20140;49.356;8.812;2022-07-23T00:16:02;21.20;99.90
33837;DHT22;20140;49.356;8.812;2022-07-23T00:18:27;21.10;99.90
33837;DHT22;20140;49.356;8.812;2022-07-23T00:20:53;21.00;99.90
33837;DHT22;20140;49.356;8.812;2022-07-23T00:23:18;21.00;99.90
33837;DHT22;20140;49.356;8.812;2022-07-23T00:25:44;21.00;99.90
33837;DHT22;20140;49.356;8.812;2022-07-23T00:28:10;21.00;99.90
33837;DHT22;20140;49.356;8.812;2022-07-23T00:30:36;20.90;99.90
33837;DHT22;20140;49.356;8.812;2022-07-23T00:33:03;20.90;99.90
33837;DHT22;20140;49.356;8.812;2022-07-23T00:35:29;20.90;99.90
33837;DHT22;20140;49.356;8.812;2022-07-23T00:37:55;21.00;99.90
33837;DHT22;20140;49.356;8.812;2022-07-23T00:40:21;20.90;99.90
33837;DHT22;20140;49.356;8.812;2022-07-23T00:42:46;20.90;99.90
33837;DHT22;20140;49.356;8.812;2022-07-23T00:45:12;21.00;99.90
33837;DHT22;20140;49.356;8.812;2022-07-23T00:47:38;21.00;99.90
33837;DHT22;20140;49.356;8.812;2022-07-23T00:50:04;20.90;99.90
33837;DHT22;20140;49.356;8.812;2022-07-23T00:52:31;20.90;99.90
33837;DHT22;20140;49.356;8.812;2022-07-23T00:54:56;20.90;99.90
33837;DHT22;20140;49.356;8.812;2022-07-23T00:57:22;20.90;99.90
33837;DHT22;20140;49.356;8.812;2022-07-23T00:59:47;20.90;99.90
33837;DHT22;20140;49.356;8.812;2022-07-23T01:02:13;20.90;99.90
33837;DHT22;20140;49.356;8.812;2022-07-23T01:04:38;20.80;99.90
33837;DHT22;20140;49.356;8.812;2022-07-23T01:07:04;20.80;99.90
33837;DHT22;20140;49.356;8.812;2022-07-23T01:09:30;20.70;99.90
33837;DHT22;20140;49.356;8.812;2022-07-23T01:11:56;20.60;99.90
33837;DHT22;20140;49.356;8.812;2022-07-23T01:14:21;20.60;99.90
33837;DHT22;20140;49.356;8.812;2022-07-23T01:16:47;20.60;99.90
33837;DHT22;20140;49.356;8.812;2022-07-23T01:19:13;20.60;99.90
33837;DHT22;20140;49.356;8.812;2022-07-23T01:21:40;20.60;99.90
33837;DHT22;20140;49.356;8.812;2022-07-23T01:24:06;20.50;99.90
33837;DHT22;20140;49.356;8.812;2022-07-23T01:26:32;20.40;99.90
33837;DHT22;20140;49.356;8.812;2022-07-23T01:28:57;20.40;99.90
33837;DHT22;20140;49.356;8.812;2022-07-23T01:31:23;20.30;99.90
33837;DHT22;20140;49.356;8.812;2022-07-23T01:33:48;20.30;99.90
33837;DHT22;20140;49.356;8.812;2022-07-23T01:36:14;20.20;99.90
33837;DHT22;20140;49.356;8.812;2022-07-23T01:38:40;20.10;99.90
33837;DHT22;20140;49.356;8.812;2022-07-23T01:41:05;20.10;99.90
33837;DHT22;20140;49.356;8.812;2022-07-23T01:43:30;20.10;99.90
33837;DHT22;20140;49.356;8.812;2022-07-23T01:45:56;20.10;99.90
33837;DHT22;20140;49.356;8.812;2022-07-23T01:48:21;20.10;99.90
33837;DHT22;20140;49.356;8.812;2022-07-23T01:50:47;20.10;99.90
33837;DHT22;20140;49.356;8.812;2022-07-23T01:53:13;20.10;99.90
33837;DHT22;20140;49.356;8.812;2022-07-23T01:55:38;20.10;99.90
33837;DHT22;20140;49.356;8.812;2022-07-23T01:58:04;20.10;99.90
33837;DHT22;20140;49.356;8.812;2022-07-23T02:00:30;20.00;99.90
33837;DHT22;20140;49.356;8.812;2022-07-23T02:02:56;20.00;99.90
33837;DHT22;20140;49.356;8.812;2022-07-23T02:05:23;19.70;99.90
33837;DHT22;20140;49.356;8.812;2022-07-23T02:07:48;19.70;99.90
33837;DHT22;20140;49.356;8.812;2022-07-23T02:10:14;19.70;99.90
33837;DHT22;20140;49.356;8.812;2022-07-23T02:12:39;19.70;99.90
33837;DHT22;20140;49.356;8.812;2022-07-23T02:15:05;19.60;99.90
33837;DHT22;20140;49.356;8.812;2022-07-23T02:17:30;19.50;99.90
33837;DHT22;20140;49.356;8.812;2022-07-23T02:19:56;19.60;99.90
33837;DHT22;20140;49.356;8.812;2022-07-23T02:22:22;19.60;99.90
33837;DHT22;20140;49.356;8.812;2022-07-23T02:24:47;19.50;99.90
33837;DHT22;20140;49.356;8.812;2022-07-23T02:27:12;19.50;99.90
33837;DHT22;20140;49.356;8.812;2022-07-23T02:29:38;19.50;99.90
33837;DHT22;20140;49.356;8.812;2022-07-23T02:32:03;19.50;99.90
33837;DHT22;20140;49.356;8.812;2022-07-23T02:34:29;19.60;99.90
33837;DHT22;20140;49.356;8.812;2022-07-23T02:36:54;19.50;99.90
33837;DHT22;20140;49.356;8.812;2022-07-23T02:39:20;19.50;99.90
33837;DHT22;20140;49.356;8.812;2022-07-23T02:41:45;19.40;99.90
33837;DHT22;20140;49.356;8.812;2022-07-23T02:44:10;19.20;99.90
33837;DHT22;20140;49.356;8.812;2022-07-23T02:46:36;19.30;99.90
33837;DHT22;20140;49.356;8.812;2022-07-23T02:49:01;19.30;99.90
33837;DHT22;20140;49.356;8.812;2022-07-23T02:51:27;19.30;99.90
33837;DHT22;20140;49.356;8.812;2022-07-23T02:53:53;19.30;99.90
33837;DHT22;20140;49.356;8.812;2022-07-23T02:56:18;19.30;99.90
33837;DHT22;20140;49.356;8.812;2022-07-23T02:58:43;19.10;99.90
33837;DHT22;20140;49.356;8.812;2022-07-23T03:01:09;19.20;99.90
33837;DHT22;20140;49.356;8.812;2022-07-23T03:03:34;19.20;99.90
33837;DHT22;20140;49.356;8.812;2022-07-23T03:06:00;19.10;99.90
33837;DHT22;20140;49.356;8.812;2022-07-23T03:08:25;19.10;99.90
33837;DHT22;20140;49.356;8.812;2022-07-23T03:10:51;19.10;99.90
33837;DHT22;20140;49.356;8.812;2022-07-23T03:13:16;19.10;99.90
33837;DHT22;20140;49.356;8.812;2022-07-23T03:15:41;19.20;99.90
33837;DHT22;20140;49.356;8.812;2022-07-23T03:18:07;19.20;99.90
33837;DHT22;20140;49.356;8.812;2022-07-23T03:20:32;19.20;99.90
33837;DHT22;20140;49.356;8.812;2022-07-23T03:22:58;19.20;99.90
33837;DHT22;20140;49.356;8.812;2022-07-23T03:25:23;19.20;99.90
33837;DHT22;20140;49.356;8.812;2022-07-23T03:27:49;19.20;99.90
33837;DHT22;20140;49.356;8.812;2022-07-23T03:30:14;19.20;99.90
33837;DHT22;20140;49.356;8.812;2022-07-23T03:32:40;19.10;99.90
33837;DHT22;20140;49.356;8.812;2022-07-23T03:35:05;19.10;99.90
33837;DHT22;20140;49.356;8.812;2022-07-23T03:37:31;19.20;99.90
33837;DHT22;20140;49.356;8.812;2022-07-23T03:39:56;19.30;99.90
33837;DHT22;20140;49.356;8.812;2022-07-23T03:42:22;19.30;99.90
33837;DHT22;20140;49.356;8.812;2022-07-23T03:44:47;19.30;99.90
33837;DHT22;20140;49.356;8.812;2022-07-23T03:47:13;19.20;99.90
33837;DHT22;20140;49.356;8.812;2022-07-23T03:49:38;19.20;99.90
33837;DHT22;20140;49.356;8.812;2022-07-23T03:52:04;19.20;99.90
33837;DHT22;20140;49.356;8.812;2022-07-23T03:54:29;19.20;99.90
33837;DHT22;20140;49.356;8.812;2022-07-23T03:56:55;19.20;99.90
33837;DHT22;20140;49.356;8.812;2022-07-23T03:59:20;19.10;99.90
33837;DHT22;20140;49.356;8.812;2022-07-23T04:01:46;19.10;99.90
33837;DHT22;20140;49.356;8.812;2022-07-23T04:04:11;19.10;99.90
33837;DHT22;20140;49.356;8.812;2022-07-23T04:06:36;19.00;99.90
33837;DHT22;20140;49.356;8.812;2022-07-23T04:09:02;19.00;99.90
33837;DHT22;20140;49.356;8.812;2022-07-23T04:11:28;18.90;99.90
33837;DHT22;20140;49.356;8.812;2022-07-23T04:13:53;18.90;99.90
33837;DHT22;20140;49.356;8.812;2022-07-23T04:16:19;19.00;99.90
33837;DHT22;20140;49.356;8.812;2022-07-23T04:18:44;19.10;99.90
33837;DHT22;20140;49.356;8.812;2022-07-23T04:21:10;19.00;99.90
33837;DHT22;20140;49.356;8.812;2022-07-23T04:23:35;19.10;99.90
33837;DHT22;20140;49.356;8.812;2022-07-23T04:26:01;19.10;99.90
33837;DHT22;20140;49.356;8.812;2022-07-23T04:28:26;19.10;99.90
33837;DHT22;20140;49.356;8.812;2022-07-23T04:30:51;19.10;99.90
33837;DHT22;20140;49.356;8.812;2022-07-23T04:33:17;19.20;99.90
33837;DHT22;20140;49.356;8.812;2022-07-23T04:35:42;19.20;99.90
33837;DHT22;20140;49.356;8.812;2022-07-23T04:38:08;19.30;99.90
33837;DHT22;20140;49.356;8.812;2022-07-23T04:40:33;19.40;99.90
33837;DHT22;20140;49.356;8.812;2022-07-23T04:42:59;19.30;99.90
33837;DHT22;20140;49.356;8.812;2022-07-23T04:45:24;19.30;99.90
33837;DHT22;20140;49.356;8.812;2022-07-23T04:47:50;19.20;99.90
33837;DHT22;20140;49.356;8.812;2022-07-23T04:50:15;19.10;99.90
33837;DHT22;20140;49.356;8.812;2022-07-23T04:52:44;19.20;99.90
33837;DHT22;20140;49.356;8.812;2022-07-23T04:55:10;19.20;99.90
33837;DHT22;20140;49.356;8.812;2022-07-23T04:57:35;19.20;99.90
33837;DHT22;20140;49.356;8.812;2022-07-23T05:00:02;19.20;99.90
33837;DHT22;20140;49.356;8.812;2022-07-23T05:02:27;19.30;99.90
33837;DHT22;20140;49.356;8.812;2022-07-23T05:04:53;19.20;99.90
33837;DHT22;20140;49.356;8.812;2022-07-23T05:07:18;19.20;99.90
33837;DHT22;20140;49.356;8.812;2022-07-23T05:09:44;19.10;99.90
33837;DHT22;20140;49.356;8.812;2022-07-23T05:12:09;19.20;99.90
33837;DHT22;20140;49.356;8.812;2022-07-23T05:14:34;19.20;99.90
33837;DHT22;20140;49.356;8.812;2022-07-23T05:17:00;19.30;99.90
33837;DHT22;20140;49.356;8.812;2022-07-23T05:19:25;19.40;99.90
33837;DHT22;20140;49.356;8.812;2022-07-23T05:21:51;19.40;99.90
33837;DHT22;20140;49.356;8.812;2022-07-23T05:24:16;19.40;99.90
33837;DHT22;20140;49.356;8.812;2022-07-23T05:26:42;19.50;99.90
33837;DHT22;20140;49.356;8.812;2022-07-23T05:29:07;19.50;99.90
33837;DHT22;20140;49.356;8.812;2022-07-23T05:31:32;19.50;99.90
33837;DHT22;20140;49.356;8.812;2022-07-23T05:33:58;19.50;99.90
33837;DHT22;20140;49.356;8.812;2022-07-23T05:36:23;19.40;99.90
33837;DHT22;20140;49.356;8.812;2022-07-23T05:38:49;19.40;99.90
33837;DHT22;20140;49.356;8.812;2022-07-23T05:41:14;19.40;99.90
33837;DHT22;20140;49.356;8.812;2022-07-23T05:43:40;19.60;99.90
33837;DHT22;20140;49.356;8.812;2022-07-23T05:46:05;19.70;99.90
33837;DHT22;20140;49.356;8.812;2022-07-23T05:48:30;19.80;99.90
33837;DHT22;20140;49.356;8.812;2022-07-23T05:50:56;19.90;99.90
33837;DHT22;20140;49.356;8.812;2022-07-23T05:53:22;19.70;99.90
33837;DHT22;20140;49.356;8.812;2022-07-23T05:55:47;19.70;99.90
33837;DHT22;20140;49.356;8.812;2022-07-23T05:58:13;19.70;99.90
33837;DHT22;20140;49.356;8.812;2022-07-23T06:00:38;19.60;99.90
33837;DHT22;20140;49.356;8.812;2022-07-23T06:03:04;19.80;99.90
33837;DHT22;20140;49.356;8.812;2022-07-23T06:05:29;19.80;99.90
33837;DHT22;20140;49.356;8.812;2022-07-23T06:07:55;19.80;99.90
33837;DHT22;20140;49.356;8.812;2022-07-23T06:10:20;19.80;99.90
33837;DHT22;20140;49.356;8.812;2022-07-23T06:12:45;19.80;99.90
33837;DHT22;20140;49.356;8.812;2022-07-23T06:15:11;19.80;99.90
33837;DHT22;20140;49.356;8.812;2022-07-23T06:17:37;19.80;99.90
33837;DHT22;20140;49.356;8.812;2022-07-23T06:20:05;19.80;99.90
33837;DHT22;20140;49.356;8.812;2022-07-23T06:22:31;19.90;99.90
33837;DHT22;20140;49.356;8.812;2022-07-23T06:24:56;20.00;99.90
33837;DHT22;20140;49.356;8.812;2022-07-23T06:27:22;20.10;99.90
33837;DHT22;20140;49.356;8.812;2022-07-23T06:29:47;20.20;99.90
33837;DHT22;20140;49.356;8.812;2022-07-23T06:32:12;20.20;99.90
33837;DHT22;20140;49.356;8.812;2022-07-23T06:34:38;20.20;99.90
33837;DHT22;20140;49.356;8.812;2022-07-23T06:37:03;20.20;99.90
33837;DHT22;20140;49.356;8.812;2022-07-23T06:39:29;20.20;99.90
33837;DHT22;20140;49.356;8.812;2022-07-23T06:41:55;20.20;99.90
33837;DHT22;20140;49.356;8.812;2022-07-23T06:44:20;20.20;99.90
33837;DHT22;20140;49.356;8.812;2022-07-23T06:46:46;20.30;99.90
33837;DHT22;20140;49.356;8.812;2022-07-23T06:49:11;20.20;99.90
33837;DHT22;20140;49.356;8.812;2022-07-23T06:51:37;20.10;99.90
33837;DHT22;20140;49.356;8.812;2022-07-23T06:54:03;20.20;99.90
33837;DHT22;20140;49.356;8.812;2022-07-23T06:56:28;20.20;99.90
33837;DHT22;20140;49.356;8.812;2022-07-23T06:58:54;20.20;99.90
33837;DHT22;20140;49.356;8.812;2022-07-23T07:01:19;20.20;99.90
33837;DHT22;20140;49.356;8.812;2022-07-23T07:03:44;20.20;99.90
33837;DHT22;20140;49.356;8.812;2022-07-23T07:06:10;20.20;99.90
33837;DHT22;20140;49.356;8.812;2022-07-23T07:08:35;20.30;99.90
33837;DHT22;20140;49.356;8.812;2022-07-23T07:11:01;20.30;99.90
33837;DHT22;20140;49.356;8.812;2022-07-23T07:13:27;20.40;99.90
33837;DHT22;20140;49.356;8.812;2022-07-23T07:15:52;20.50;99.90
33837;DHT22;20140;49.356;8.812;2022-07-23T07:18:17;20.70;99.90
33837;DHT22;20140;49.356;8.812;2022-07-23T07:20:43;20.80;99.90
33837;DHT22;20140;49.356;8.812;2022-07-23T07:23:09;20.80;99.90
33837;DHT22;20140;49.356;8.812;2022-07-23T07:25:34;20.90;99.90
33837;DHT22;20140;49.356;8.812;2022-07-23T07:28:00;20.90;99.90
33837;DHT22;20140;49.356;8.812;2022-07-23T07:30:25;21.10;99.90
33837;DHT22;20140;49.356;8.812;2022-07-23T07:32:50;21.20;99.90
33837;DHT22;20140;49.356;8.812;2022-07-23T07:35:16;21.20;99.90
33837;DHT22;20140;49.356;8.812;2022-07-23T07:37:41;21.40;99.90
33837;DHT22;20140;49.356;8.812;2022-07-23T07:40:07;21.50;99.90
33837;DHT22;20140;49.356;8.812;2022-07-23T07:42:33;21.60;99.90
33837;DHT22;20140;49.356;8.812;2022-07-23T07:44:58;21.50;99.90
33837;DHT22;20140;49.356;8.812;2022-07-23T07:47:25;21.50;99.90
33837;DHT22;20140;49.356;8.812;2022-07-23T07:49:51;21.50;99.90
33837;DHT22;20140;49.356;8.812;2022-07-23T07:52:16;21.30;99.90
33837;DHT22;20140;49.356;8.812;2022-07-23T07:54:42;21.30;99.90
33837;DHT22;20140;49.356;8.812;2022-07-23T07:57:08;21.40;99.90
33837;DHT22;20140;49.356;8.812;2022-07-23T07:59:33;21.70;99.90
33837;DHT22;20140;49.356;8.812;2022-07-23T08:01:59;21.80;99.90
33837;DHT22;20140;49.356;8.812;2022-07-23T08:04:24;21.90;99.90
33837;DHT22;20140;49.356;8.812;2022-07-23T08:06:49;21.80;99.90
33837;DHT22;20140;49.356;8.812;2022-07-23T08:09:15;21.70;99.90
33837;DHT22;20140;49.356;8.812;2022-07-23T08:11:40;21.70;99.90
33837;DHT22;20140;49.356;8.812;2022-07-23T08:14:06;21.80;99.90
33837;DHT22;20140;49.356;8.812;2022-07-23T08:16:31;22.00;99.90
33837;DHT22;20140;49.356;8.812;2022-07-23T08:18:57;22.30;99.90
33837;DHT22;20140;49.356;8.812;2022-07-23T08:21:22;22.40;99.90
33837;DHT22;20140;49.356;8.812;2022-07-23T08:23:47;22.40;99.90
33837;DHT22;20140;49.356;8.812;2022-07-23T08:26:13;22.40;99.90
33837;DHT22;20140;49.356;8.812;2022-07-23T08:28:38;22.30;99.90
33837;DHT22;20140;49.356;8.812;2022-07-23T08:31:04;22.50;99.90
33837;DHT22;20140;49.356;8.812;2022-07-23T08:33:30;22.70;99.90
33837;DHT22;20140;49.356;8.812;2022-07-23T08:35:56;22.90;99.90
33837;DHT22;20140;49.356;8.812;2022-07-23T08:38:21;23.10;99.90
33837;DHT22;20140;49.356;8.812;2022-07-23T08:40:49;23.40;99.90
33837;DHT22;20140;49.356;8.812;2022-07-23T08:43:16;23.30;99.90
33837;DHT22;20140;49.356;8.812;2022-07-23T08:45:42;23.20;99.90
33837;DHT22;20140;49.356;8.812;2022-07-23T08:48:12;23.40;99.90
33837;DHT22;20140;49.356;8.812;2022-07-23T08:50:37;23.50;99.90
33837;DHT22;20140;49.356;8.812;2022-07-23T08:53:07;23.20;99.90
33837;DHT22;20140;49.356;8.812;2022-07-23T08:55:33;23.30;99.90
33837;DHT22;20140;49.356;8.812;2022-07-23T08:57:59;23.20;99.90
33837;DHT22;20140;49.356;8.812;2022-07-23T09:00:25;23.20;99.90
33837;DHT22;20140;49.356;8.812;2022-07-23T09:02:50;22.70;99.90
33837;DHT22;20140;49.356;8.812;2022-07-23T09:05:16;22.90;99.90
33837;DHT22;20140;49.356;8.812;2022-07-23T09:10:26;23.00;99.90
33837;DHT22;20140;49.356;8.812;2022-07-23T09:12:51;23.00;99.90
33837;DHT22;20140;49.356;8.812;2022-07-23T09:15:17;23.00;99.90
33837;DHT22;20140;49.356;8.812;2022-07-23T09:17:42;23.10;99.90
33837;DHT22;20140;49.356;8.812;2022-07-23T09:20:12;23.40;99.90
33837;DHT22;20140;49.356;8.812;2022-07-23T09:22:38;23.50;99.90
33837;DHT22;20140;49.356;8.812;2022-07-23T09:25:04;23.40;99.90
33837;DHT22;20140;49.356;8.812;2022-07-23T09:27:50;23.30;99.90
33837;DHT22;20140;49.356;8.812;2022-07-23T09:30:16;23.40;99.90
33837;DHT22;20140;49.356;8.812;2022-07-23T09:32:41;23.40;99.90
33837;DHT22;20140;49.356;8.812;2022-07-23T09:35:07;23.30;99.90
33837;DHT22;20140;49.356;8.812;2022-07-23T09:37:32;23.60;99.90
33837;DHT22;20140;49.356;8.812;2022-07-23T09:40:05;23.50;99.90
33837;DHT22;20140;49.356;8.812;2022-07-23T09:42:31;23.30;99.90
33837;DHT22;20140;49.356;8.812;2022-07-23T09:44:57;23.50;99.90
33837;DHT22;20140;49.356;8.812;2022-07-23T09:47:24;23.70;99.90
33837;DHT22;20140;49.356;8.812;2022-07-23T09:50:06;23.60;99.90
33837;DHT22;20140;49.356;8.812;2022-07-23T09:52:34;23.70;99.90
33837;DHT22;20140;49.356;8.812;2022-07-23T09:55:01;23.90;99.90
33837;DHT22;20140;49.356;8.812;2022-07-23T09:57:27;23.80;99.90
33837;DHT22;20140;49.356;8.812;2022-07-23T09:59:52;23.80;99.90
33837;DHT22;20140;49.356;8.812;2022-07-23T10:02:18;24.00;99.90
33837;DHT22;20140;49.356;8.812;2022-07-23T10:04:43;23.60;99.90
33837;DHT22;20140;49.356;8.812;2022-07-23T10:07:09;23.80;99.90
33837;DHT22;20140;49.356;8.812;2022-07-23T10:09:37;24.00;99.90
33837;DHT22;20140;49.356;8.812;2022-07-23T10:12:04;24.00;99.90
33837;DHT22;20140;49.356;8.812;2022-07-23T10:14:49;24.40;99.90
33837;DHT22;20140;49.356;8.812;2022-07-23T10:17:16;24.50;99.90
33837;DHT22;20140;49.356;8.812;2022-07-23T10:19:42;24.50;99.90
33837;DHT22;20140;49.356;8.812;2022-07-23T10:22:09;24.80;99.90
33837;DHT22;20140;49.356;8.812;2022-07-23T10:24:49;24.60;99.90
33837;DHT22;20140;49.356;8.812;2022-07-23T10:29:52;24.80;99.90
33837;DHT22;20140;49.356;8.812;2022-07-23T10:32:31;25.00;99.90
33837;DHT22;20140;49.356;8.812;2022-07-23T10:37:34;25.20;99.90
33837;DHT22;20140;49.356;8.812;2022-07-23T10:40:18;25.30;99.90
33837;DHT22;20140;49.356;8.812;2022-07-23T10:42:44;25.50;99.90
33837;DHT22;20140;49.356;8.812;2022-07-23T10:45:23;25.70;99.90
33837;DHT22;20140;49.356;8.812;2022-07-23T10:47:49;25.70;99.90
33837;DHT22;20140;49.356;8.812;2022-07-23T10:50:26;25.20;99.90
33837;DHT22;20140;49.356;8.812;2022-07-23T10:58:06;25.40;99.90
33837;DHT22;20140;49.356;8.812;2022-07-23T11:00:32;25.40;99.90
33837;DHT22;20140;49.356;8.812;2022-07-23T11:02:59;25.70;99.90
33837;DHT22;20140;49.356;8.812;2022-07-23T11:05:41;25.90;99.90
33837;DHT22;20140;49.356;8.812;2022-07-23T11:18:52;26.40;99.90
33837;DHT22;20140;49.356;8.812;2022-07-23T11:26:40;26.60;99.90
33837;DHT22;20140;49.356;8.812;2022-07-23T11:36:56;27.10;99.90
33837;DHT22;20140;49.356;8.812;2022-07-23T11:39:22;27.00;99.90
33837;DHT22;20140;49.356;8.812;2022-07-23T11:41:50;27.40;99.90
33837;DHT22;20140;49.356;8.812;2022-07-23T11:46:54;27.60;99.90
33837;DHT22;20140;49.356;8.812;2022-07-23T11:49:20;27.70;99.90
33837;DHT22;20140;49.356;8.812;2022-07-23T11:51:46;26.90;99.90
33837;DHT22;20140;49.356;8.812;2022-07-23T11:54:11;27.20;99.90
33837;DHT22;20140;49.356;8.812;2022-07-23T11:56:37;27.20;99.90
33837;DHT22;20140;49.356;8.812;2022-07-23T11:59:02;27.40;99.90
33837;DHT22;20140;49.356;8.812;2022-07-23T12:01:27;28.10;99.90
33837;DHT22;20140;49.356;8.812;2022-07-23T12:03:53;28.10;99.90
33837;DHT22;20140;49.356;8.812;2022-07-23T12:06:19;28.00;99.40
33837;DHT22;20140;49.356;8.812;2022-07-23T12:08:44;28.10;99.90
33837;DHT22;20140;49.356;8.812;2022-07-23T12:11:11;27.90;99.90
33837;DHT22;20140;49.356;8.812;2022-07-23T12:13:37;28.10;98.50
33837;DHT22;20140;49.356;8.812;2022-07-23T12:16:02;27.80;98.40
33837;DHT22;20140;49.356;8.812;2022-07-23T12:18:29;27.80;98.80
33837;DHT22;20140;49.356;8.812;2022-07-23T12:20:56;27.70;98.00
33837;DHT22;20140;49.356;8.812;2022-07-23T12:23:22;27.60;98.00
33837;DHT22;20140;49.356;8.812;2022-07-23T12:25:49;27.70;98.60
33837;DHT22;20140;49.356;8.812;2022-07-23T12:28:16;27.90;98.00
33837;DHT22;20140;49.356;8.812;2022-07-23T12:30:45;28.30;97.20
33837;DHT22;20140;49.356;8.812;2022-07-23T12:33:12;28.20;97.00
33837;DHT22;20140;49.356;8.812;2022-07-23T12:35:39;28.00;96.20
33837;DHT22;20140;49.356;8.812;2022-07-23T12:38:07;28.00;96.40
33837;DHT22;20140;49.356;8.812;2022-07-23T12:40:40;28.10;96.80
33837;DHT22;20140;49.356;8.812;2022-07-23T12:43:07;28.50;97.30
33837;DHT22;20140;49.356;8.812;2022-07-23T12:45:43;28.90;95.30
33837;DHT22;20140;49.356;8.812;2022-07-23T12:48:14;29.30;94.60
33837;DHT22;20140;49.356;8.812;2022-07-23T12:50:50;28.90;96.20
33837;DHT22;20140;49.356;8.812;2022-07-23T12:53:23;29.10;96.00
33837;DHT22;20140;49.356;8.812;2022-07-23T12:55:49;29.10;95.40
33837;DHT22;20140;49.356;8.812;2022-07-23T12:58:16;28.90;95.80
33837;DHT22;20140;49.356;8.812;2022-07-23T13:01:02;28.90;95.50
33837;DHT22;20140;49.356;8.812;2022-07-23T13:03:29;28.50;95.70
33837;DHT22;20140;49.356;8.812;2022-07-23T13:05:55;28.50;96.70
33837;DHT22;20140;49.356;8.812;2022-07-23T13:08:21;28.40;97.00
33837;DHT22;20140;49.356;8.812;2022-07-23T13:10:47;28.90;96.70
33837;DHT22;20140;49.356;8.812;2022-07-23T13:13:14;28.30;96.10
33837;DHT22;20140;49.356;8.812;2022-07-23T13:15:40;28.10;97.60
33837;DHT22;20140;49.356;8.812;2022-07-23T13:18:06;27.90;97.70
33837;DHT22;20140;49.356;8.812;2022-07-23T13:20:31;28.00;98.70
33837;DHT22;20140;49.356;8.812;2022-07-23T13:22:57;27.80;98.20
33837;DHT22;20140;49.356;8.812;2022-07-23T13:25:23;27.70;97.50
33837;DHT22;20140;49.356;8.812;2022-07-23T13:27:48;27.80;98.80
33837;DHT22;20140;49.356;8.812;2022-07-23T13:30:14;27.80;97.70
33837;DHT22;20140;49.356;8.812;2022-07-23T13:32:40;27.80;97.50
33837;DHT22;20140;49.356;8.812;2022-07-23T13:35:05;28.60;97.90
33837;DHT22;20140;49.356;8.812;2022-07-23T13:37:31;27.70;98.70
33837;DHT22;20140;49.356;8.812;2022-07-23T13:39:56;27.40;99.70
33837;DHT22;20140;49.356;8.812;2022-07-23T13:42:22;27.50;99.90
33837;DHT22;20140;49.356;8.812;2022-07-23T13:44:47;28.10;99.40
33837;DHT22;20140;49.356;8.812;2022-07-23T13:47:13;28.30;99.70
33837;DHT22;20140;49.356;8.812;2022-07-23T13:49:38;28.00;99.20
33837;DHT22;20140;49.356;8.812;2022-07-23T13:52:04;28.30;98.50
33837;DHT22;20140;49.356;8.812;2022-07-23T13:54:29;28.00;98.80
33837;DHT22;20140;49.356;8.812;2022-07-23T13:56:55;27.50;99.80
33837;DHT22;20140;49.356;8.812;2022-07-23T13:59:21;27.40;99.90
33837;DHT22;20140;49.356;8.812;2022-07-23T14:01:46;27.80;98.60
33837;DHT22;20140;49.356;8.812;2022-07-23T14:04:12;28.30;98.10
33837;DHT22;20140;49.356;8.812;2022-07-23T14:06:37;28.50;97.00
33837;DHT22;20140;49.356;8.812;2022-07-23T14:09:02;28.00;97.40
33837;DHT22;20140;49.356;8.812;2022-07-23T14:11:28;27.50;98.90
33837;DHT22;20140;49.356;8.812;2022-07-23T14:13:55;27.60;98.60
33837;DHT22;20140;49.356;8.812;2022-07-23T14:16:21;27.50;98.80
33837;DHT22;20140;49.356;8.812;2022-07-23T14:18:47;27.30;99.20
33837;DHT22;20140;49.356;8.812;2022-07-23T14:21:12;27.00;99.50
33837;DHT22;20140;49.356;8.812;2022-07-23T14:23:37;26.90;99.20
33837;DHT22;20140;49.356;8.812;2022-07-23T14:26:03;27.10;99.40
33837;DHT22;20140;49.356;8.812;2022-07-23T14:28:28;27.00;99.70
33837;DHT22;20140;49.356;8.812;2022-07-23T14:30:54;27.10;99.00
33837;DHT22;20140;49.356;8.812;2022-07-23T14:33:19;26.90;99.40
33837;DHT22;20140;49.356;8.812;2022-07-23T14:35:46;27.10;99.90
33837;DHT22;20140;49.356;8.812;2022-07-23T14:38:11;27.60;98.10
33837;DHT22;20140;49.356;8.812;2022-07-23T14:40:37;27.90;98.30
33837;DHT22;20140;49.356;8.812;2022-07-23T14:43:02;27.40;98.30
33837;DHT22;20140;49.356;8.812;2022-07-23T14:45:27;27.50;98.90
33837;DHT22;20140;49.356;8.812;2022-07-23T14:47:55;27.30;98.10
33837;DHT22;20140;49.356;8.812;2022-07-23T14:50:20;27.90;99.60
33837;DHT22;20140;49.356;8.812;2022-07-23T14:52:46;28.40;98.80
33837;DHT22;20140;49.356;8.812;2022-07-23T14:55:12;28.40;97.40
33837;DHT22;20140;49.356;8.812;2022-07-23T14:57:37;28.90;96.90
33837;DHT22;20140;49.356;8.812;2022-07-23T15:00:03;29.70;95.70
33837;DHT22;20140;49.356;8.812;2022-07-23T15:02:29;29.30;96.10
33837;DHT22;20140;49.356;8.812;2022-07-23T15:04:55;29.80;95.00
33837;DHT22;20140;49.356;8.812;2022-07-23T15:07:23;30.10;94.70
33837;DHT22;20140;49.356;8.812;2022-07-23T15:09:48;29.20;94.90
33837;DHT22;20140;49.356;8.812;2022-07-23T15:12:14;29.40;95.60
33837;DHT22;20140;49.356;8.812;2022-07-23T15:14:39;29.20;94.80
33837;DHT22;20140;49.356;8.812;2022-07-23T15:17:05;29.20;95.40
33837;DHT22;20140;49.356;8.812;2022-07-23T15:19:30;30.30;94.60
33837;DHT22;20140;49.356;8.812;2022-07-23T15:21:56;30.80;93.50
33837;DHT22;20140;49.356;8.812;2022-07-23T15:24:21;32.00;91.40
33837;DHT22;20140;49.356;8.812;2022-07-23T15:26:46;32.10;91.40
33837;DHT22;20140;49.356;8.812;2022-07-23T15:29:12;33.20;87.10
33837;DHT22;20140;49.356;8.812;2022-07-23T15:31:37;33.10;85.80
33837;DHT22;20140;49.356;8.812;2022-07-23T15:34:03;32.90;85.30
33837;DHT22;20140;49.356;8.812;2022-07-23T15:36:28;32.50;87.70
33837;DHT22;20140;49.356;8.812;2022-07-23T15:38:54;32.50;83.20
33837;DHT22;20140;49.356;8.812;2022-07-23T15:41:19;32.90;82.80
33837;DHT22;20140;49.356;8.812;2022-07-23T15:43:45;32.40;83.00
33837;DHT22;20140;49.356;8.812;2022-07-23T15:46:10;32.10;84.50
33837;DHT22;20140;49.356;8.812;2022-07-23T15:48:36;32.40;83.50
33837;DHT22;20140;49.356;8.812;2022-07-23T15:51:02;32.00;84.80
33837;DHT22;20140;49.356;8.812;2022-07-23T15:53:28;31.60;86.80
33837;DHT22;20140;49.356;8.812;2022-07-23T15:55:53;31.60;85.10
33837;DHT22;20140;49.356;8.812;2022-07-23T15:58:18;31.00;84.50
33837;DHT22;20140;49.356;8.812;2022-07-23T16:00:44;31.50;85.00
33837;DHT22;20140;49.356;8.812;2022-07-23T16:03:09;32.20;82.40